Dunbar, United Kingdom
Current Conditions -  °F | °C
As of 7:50 PM on Sunday 25 Jan 2015 (Local Time) from EGQL Reporting Station
Light Rain Light Rain  
Wind Chill: 43°   Ceiling: 2200
Heat Index: 48°   Visibility: 6mi
Dew Point: 46°   Wind: 14mph
Humidity: 93%   Direction: 250°WSW
Pressure: 29.91"   Gusts: NA
Location:  56°N, 2.51°W
Report Text: EGQL 251950Z 25012KT 9999 -RA BKN022 09/08 Q1013 WHT
Loading
Personal Weather Stations






























Interactive Weather Map New forecast layout! Learn more

10-Day Weather Forecast

Advertisements
Track Severe Weather on mobile